Time;durP1;ratioP1;P1;durP2;ratioP2;P2;SDS_P1;SDS_P2;PMS_P1;PMS_P2;Temp;Humidity;BMP_temperature;BMP_pressure;BME280_temperature;BME280_humidity;BME280_pressure;Samples;Min_cycle;Max_cycle;Signal;HPM_P1;HPM_P2
2021/07/10 00:00:12;;;;;;;2.65;1.98;;;15.00;99.90;;;;;;4976680;28;20097;-91
2021/07/10 00:02:38;;;;;;;2.63;1.63;;;15.00;99.90;;;;;;4977398;28;20122;-91
2021/07/10 00:05:06;;;;;;;5.55;1.60;;;15.00;99.90;;;;;;4976901;28;20030;-91
2021/07/10 00:07:32;;;;;;;1.67;1.50;;;15.00;99.90;;;;;;4976549;28;20053;-92
2021/07/10 00:09:59;;;;;;;4.25;1.77;;;15.00;99.90;;;;;;4994705;28;20026;-90
2021/07/10 00:12:25;;;;;;;1.63;1.45;;;15.00;99.90;;;;;;5029169;28;20025;-91
2021/07/10 00:14:51;;;;;;;3.38;1.92;;;14.90;99.90;;;;;;4995785;28;20498;-91
2021/07/10 00:17:16;;;;;;;5.40;2.10;;;14.80;99.90;;;;;;5012976;28;20026;-91
2021/07/10 00:19:43;;;;;;;3.72;1.98;;;14.80;99.90;;;;;;5027652;28;20531;-91
2021/07/10 00:22:09;;;;;;;4.28;2.00;;;14.80;99.90;;;;;;4995664;28;20435;-90
2021/07/10 00:24:36;;;;;;;2.90;1.80;;;14.80;99.90;;;;;;5016406;28;20022;-91
2021/07/10 00:27:02;;;;;;;3.47;1.98;;;14.70;99.90;;;;;;4976296;28;20034;-91
2021/07/10 00:29:28;;;;;;;5.50;1.75;;;14.70;99.90;;;;;;4976455;28;20114;-90
2021/07/10 00:31:53;;;;;;;2.10;1.88;;;14.70;99.90;;;;;;4976135;28;20077;-91
2021/07/10 00:34:19;;;;;;;3.03;2.03;;;14.70;99.90;;;;;;4993489;28;20425;-91
2021/07/10 00:36:45;;;;;;;4.85;2.00;;;14.70;99.90;;;;;;4975166;28;20026;-91
2021/07/10 00:39:11;;;;;;;2.50;2.30;;;14.60;99.90;;;;;;4976533;28;20106;-91
2021/07/10 00:41:37;;;;;;;2.50;2.30;;;14.70;99.90;;;;;;4976259;28;20133;-91
2021/07/10 00:44:03;;;;;;;3.22;1.85;;;14.60;99.90;;;;;;4991345;28;20068;-91
2021/07/10 00:46:29;;;;;;;2.28;1.92;;;14.60;99.90;;;;;;5013173;28;20033;-91
2021/07/10 00:48:55;;;;;;;2.70;1.88;;;14.50;99.90;;;;;;5012408;28;20030;-91
2021/07/10 00:51:21;;;;;;;2.78;1.95;;;14.50;99.90;;;;;;5028569;28;20057;-91
2021/07/10 00:53:48;;;;;;;1.80;1.70;;;14.50;99.90;;;;;;5028018;28;20026;-91
2021/07/10 00:56:14;;;;;;;3.20;2.33;;;14.40;99.90;;;;;;4995532;28;20034;-91
2021/07/10 00:58:40;;;;;;;3.33;2.00;;;14.40;99.90;;;;;;4995841;28;20029;-91
2021/07/10 01:01:08;;;;;;;2.20;2.00;;;14.40;99.90;;;;;;5028113;28;20040;-91
2021/07/10 01:03:35;;;;;;;3.30;2.22;;;14.40;99.90;;;;;;5012408;28;20076;-90
2021/07/10 01:06:02;;;;;;;3.38;2.42;;;14.40;99.90;;;;;;5028055;28;20558;-91
2021/07/10 01:08:28;;;;;;;4.47;2.10;;;14.30;99.90;;;;;;5026069;28;20136;-90
2021/07/10 01:10:54;;;;;;;3.53;2.55;;;14.40;99.90;;;;;;5028024;28;20026;-91
2021/07/10 01:13:20;;;;;;;5.22;2.47;;;14.30;99.90;;;;;;5026500;28;20400;-90
2021/07/10 01:15:46;;;;;;;5.32;2.63;;;14.30;99.90;;;;;;5012187;28;20033;-91
2021/07/10 01:18:12;;;;;;;3.28;2.33;;;14.30;99.90;;;;;;5027968;28;20017;-91
2021/07/10 01:21:01;;;;;;;2.72;2.00;;;14.30;99.90;;;;;;5026327;28;20528;-92
2021/07/10 01:23:28;;;;;;;3.70;1.65;;;14.30;99.90;;;;;;5008557;28;20018;-91
2021/07/10 01:25:54;;;;;;;2.63;2.38;;;14.30;99.90;;;;;;5007698;28;20042;-90
2021/07/10 01:28:20;;;;;;;2.80;2.30;;;14.30;99.90;;;;;;5008006;28;20032;-91
2021/07/10 01:30:48;;;;;;;5.32;2.30;;;14.40;99.90;;;;;;5007794;28;20041;-91
2021/07/10 01:33:25;;;;;;;3.35;2.10;;;14.40;99.90;;;;;;5007561;28;20117;-90
2021/07/10 01:35:50;;;;;;;4.15;2.35;;;14.50;99.90;;;;;;5007617;28;20121;-91
2021/07/10 01:38:16;;;;;;;2.78;2.42;;;14.50;99.90;;;;;;4991575;28;20425;-91
2021/07/10 01:40:43;;;;;;;4.60;2.35;;;14.60;99.90;;;;;;4975747;28;20030;-90
2021/07/10 01:43:09;;;;;;;2.08;1.75;;;14.60;99.90;;;;;;4978913;28;20043;-92
2021/07/10 01:45:37;;;;;;;4.85;2.00;;;14.60;99.90;;;;;;4986863;28;20113;-91
2021/07/10 01:48:04;;;;;;;2.67;2.20;;;14.60;99.90;;;;;;4972246;28;20027;-91
2021/07/10 01:50:31;;;;;;;4.82;2.40;;;14.60;99.90;;;;;;4975527;28;20034;-91
2021/07/10 01:52:57;;;;;;;4.82;2.63;;;14.70;99.90;;;;;;4983481;28;20023;-90
2021/07/10 01:55:24;;;;;;;7.85;2.75;;;14.70;99.90;;;;;;4978458;28;20569;-91
2021/07/10 01:57:52;;;;;;;3.67;1.98;;;14.70;99.90;;;;;;4974684;28;20054;-90
2021/07/10 02:00:27;;;;;;;3.40;2.22;;;14.70;99.90;;;;;;4971995;28;20075;-91
2021/07/10 02:02:54;;;;;;;3.05;1.98;;;14.70;99.90;;;;;;4973254;28;20054;-91
2021/07/10 02:05:25;;;;;;;2.78;2.10;;;14.70;99.90;;;;;;4971633;28;20027;-91
2021/07/10 02:07:52;;;;;;;2.53;2.00;;;14.80;99.90;;;;;;4972784;28;20027;-90
2021/07/10 02:10:19;;;;;;;2.25;2.05;;;14.90;99.90;;;;;;4992544;28;20480;-90
2021/07/10 02:12:50;;;;;;;2.17;2.00;;;14.90;99.90;;;;;;4991508;28;20061;-91
2021/07/10 02:15:17;;;;;;;4.10;2.03;;;15.00;99.90;;;;;;4990979;28;20054;-91
2021/07/10 02:17:44;;;;;;;3.40;1.88;;;15.10;99.90;;;;;;4991189;28;20116;-91
2021/07/10 02:20:12;;;;;;;3.45;1.92;;;15.20;99.90;;;;;;4991255;28;20085;-91
2021/07/10 02:22:38;;;;;;;3.72;2.15;;;15.20;99.90;;;;;;4994971;28;20037;-90
2021/07/10 02:25:14;;;;;;;3.65;2.05;;;15.20;99.90;;;;;;4978041;28;20034;-91
2021/07/10 02:27:40;;;;;;;3.25;2.10;;;15.30;99.90;;;;;;4974847;28;20058;-91
2021/07/10 02:30:09;;;;;;;3.42;1.75;;;15.30;99.90;;;;;;4976473;28;20500;-91
2021/07/10 02:32:35;;;;;;;3.42;2.40;;;15.40;99.90;;;;;;4975810;28;20027;-91
2021/07/10 02:35:00;;;;;;;3.03;2.60;;;15.50;99.90;;;;;;4990744;28;20042;-91
2021/07/10 02:37:28;;;;;;;2.53;2.33;;;15.50;99.90;;;;;;4991257;28;20077;-90
2021/07/10 02:39:54;;;;;;;3.75;2.28;;;15.60;99.90;;;;;;4991029;28;20543;-90
2021/07/10 02:42:19;;;;;;;2.97;2.33;;;15.60;99.90;;;;;;4997295;28;20055;-91
2021/07/10 02:44:45;;;;;;;2.72;2.33;;;15.70;99.90;;;;;;4996135;28;20492;-90
2021/07/10 02:47:11;;;;;;;3.45;2.50;;;15.70;99.90;;;;;;4974906;28;20079;-91
2021/07/10 02:49:37;;;;;;;2.70;2.50;;;15.70;99.90;;;;;;4971879;28;20517;-91
2021/07/10 02:52:07;;;;;;;4.18;2.60;;;15.70;99.90;;;;;;4971696;28;20031;-91
2021/07/10 02:54:35;;;;;;;2.55;2.35;;;15.70;99.90;;;;;;4987112;28;20033;-91
2021/07/10 02:57:01;;;;;;;3.38;2.30;;;15.80;99.90;;;;;;4995371;28;20027;-91
2021/07/10 02:59:27;;;;;;;2.50;2.30;;;15.80;99.90;;;;;;4995447;28;20042;-91
2021/07/10 03:01:53;;;;;;;2.58;2.13;;;15.80;99.90;;;;;;4994145;28;20054;-91
2021/07/10 03:04:18;;;;;;;2.33;2.13;;;15.80;99.90;;;;;;4995174;28;20601;-90
2021/07/10 03:06:44;;;;;;;4.13;2.17;;;15.80;99.90;;;;;;4993637;28;20512;-91
2021/07/10 03:09:10;;;;;;;2.88;1.85;;;15.80;99.90;;;;;;4994867;28;20031;-91
2021/07/10 03:11:36;;;;;;;2.95;2.17;;;15.80;99.90;;;;;;4994250;28;20060;-91
2021/07/10 03:14:02;;;;;;;4.32;2.20;;;15.80;99.90;;;;;;4993054;28;20030;-90
2021/07/10 03:16:28;;;;;;;2.30;2.10;;;15.90;99.90;;;;;;4992962;28;20513;-91
2021/07/10 03:18:54;;;;;;;2.75;2.38;;;15.90;99.90;;;;;;4993993;28;20031;-91
2021/07/10 03:21:20;;;;;;;3.17;2.30;;;15.90;99.90;;;;;;4991973;28;20026;-91
2021/07/10 03:23:45;;;;;;;2.30;2.10;;;15.90;99.90;;;;;;4987220;28;20080;-90
2021/07/10 03:26:11;;;;;;;4.63;2.33;;;15.90;99.90;;;;;;5007349;28;20117;-91
2021/07/10 03:28:37;;;;;;;2.55;2.10;;;15.90;99.90;;;;;;4974718;28;20034;-91
2021/07/10 03:31:03;;;;;;;3.63;2.28;;;15.90;99.90;;;;;;4973853;28;20082;-91
2021/07/10 03:33:34;;;;;;;2.65;2.42;;;15.90;99.90;;;;;;5006728;28;20039;-91
2021/07/10 03:36:01;;;;;;;3.10;2.38;;;15.90;99.90;;;;;;4973182;28;20033;-90
2021/07/10 03:38:27;;;;;;;2.60;2.30;;;16.00;99.90;;;;;;4990073;28;20077;-91
2021/07/10 03:40:52;;;;;;;2.35;2.15;;;16.00;99.90;;;;;;4990775;28;20027;-91
2021/07/10 03:43:20;;;;;;;2.33;2.13;;;16.00;99.90;;;;;;4998032;28;20055;-91
2021/07/10 03:45:46;;;;;;;2.38;2.17;;;16.00;99.90;;;;;;4982427;28;20031;-92
2021/07/10 03:48:12;;;;;;;3.60;2.28;;;16.00;99.90;;;;;;4956386;28;20441;-92
2021/07/10 03:50:38;;;;;;;5.60;2.47;;;16.00;99.90;;;;;;4954420;28;20510;-91
2021/07/10 03:53:03;;;;;;;2.42;2.17;;;16.00;99.90;;;;;;4956013;28;20035;-91
2021/07/10 03:55:31;;;;;;;3.55;2.20;;;16.00;99.90;;;;;;4992680;28;20026;-91
2021/07/10 03:57:56;;;;;;;5.75;2.63;;;16.00;99.90;;;;;;4993168;28;20022;-91
2021/07/10 04:00:25;;;;;;;2.40;2.20;;;16.00;99.90;;;;;;4992641;28;20027;-91
2021/07/10 04:02:52;;;;;;;3.25;2.42;;;16.00;99.90;;;;;;4993224;28;20030;-92
2021/07/10 04:05:18;;;;;;;2.78;2.05;;;16.00;99.90;;;;;;4994307;28;20093;-91
2021/07/10 04:07:44;;;;;;;2.47;2.28;;;16.00;99.90;;;;;;4996550;28;20088;-91
2021/07/10 04:10:12;;;;;;;4.18;2.45;;;16.00;99.90;;;;;;4994338;28;20443;-91
2021/07/10 04:12:38;;;;;;;2.80;2.17;;;16.00;99.90;;;;;;4997290;28;20033;-91
2021/07/10 04:15:05;;;;;;;2.63;1.98;;;15.90;99.90;;;;;;4996466;28;20057;-91
2021/07/10 04:17:32;;;;;;;4.20;2.30;;;15.90;99.90;;;;;;4997216;28;20109;-90
2021/07/10 04:19:58;;;;;;;2.42;2.10;;;15.90;99.90;;;;;;4994550;28;20026;-91
2021/07/10 04:22:23;;;;;;;2.22;2.03;;;15.90;99.90;;;;;;4991824;28;20026;-91
2021/07/10 04:24:50;;;;;;;4.28;2.55;;;15.80;99.90;;;;;;4978287;28;20029;-91
2021/07/10 04:27:17;;;;;;;2.92;2.45;;;15.80;99.90;;;;;;4974280;28;20109;-91
2021/07/10 04:29:45;;;;;;;3.05;2.22;;;15.70;99.90;;;;;;4989235;28;20031;-91
2021/07/10 04:32:12;;;;;;;2.40;2.30;;;15.70;99.90;;;;;;4988570;28;20061;-91
2021/07/10 04:34:38;;;;;;;5.78;2.42;;;15.70;99.90;;;;;;4989410;28;20038;-90
2021/07/10 04:37:04;;;;;;;5.43;2.38;;;15.80;99.90;;;;;;4988265;28;20038;-91
2021/07/10 04:39:30;;;;;;;10.10;2.50;;;15.80;99.90;;;;;;4988440;28;20502;-91
2021/07/10 04:41:56;;;;;;;3.17;2.45;;;15.80;99.90;;;;;;4967235;28;20494;-90
2021/07/10 04:44:21;;;;;;;3.53;2.33;;;15.80;99.90;;;;;;4969253;28;20037;-91
2021/07/10 04:46:47;;;;;;;4.60;2.63;;;15.80;99.90;;;;;;4956803;28;20031;-91
2021/07/10 04:49:14;;;;;;;3.22;2.45;;;15.80;99.90;;;;;;4953246;29;20039;-91
2021/07/10 04:51:40;;;;;;;4.47;2.25;;;15.70;99.90;;;;;;4952900;29;20038;-91
2021/07/10 04:54:06;;;;;;;2.47;2.28;;;15.70;99.90;;;;;;4953346;28;20131;-91
2021/07/10 04:56:32;;;;;;;2.33;2.08;;;15.70;99.90;;;;;;4954137;28;20102;-91
2021/07/10 04:58:58;;;;;;;2.25;1.90;;;15.70;99.90;;;;;;4961379;29;20392;-91
2021/07/10 05:01:26;;;;;;;2.75;2.25;;;15.70;99.90;;;;;;4966217;29;20035;-90
2021/07/10 05:03:52;;;;;;;2.67;1.70;;;15.70;99.90;;;;;;4955044;29;20031;-91
2021/07/10 05:06:18;;;;;;;2.13;1.90;;;15.70;99.90;;;;;;4953331;29;20031;-91
2021/07/10 05:08:44;;;;;;;2.97;1.80;;;15.70;99.90;;;;;;4960837;28;20085;-91
2021/07/10 05:11:10;;;;;;;2.25;1.85;;;15.70;99.90;;;;;;4973158;28;20037;-90
2021/07/10 05:13:36;;;;;;;2.20;2.00;;;15.70;99.90;;;;;;4972431;28;20035;-91
2021/07/10 05:16:02;;;;;;;3.38;1.90;;;15.70;99.90;;;;;;4973094;28;20528;-92
2021/07/10 05:18:28;;;;;;;1.80;1.70;;;15.70;99.90;;;;;;4972094;28;20039;-91
2021/07/10 05:20:55;;;;;;;2.83;1.90;;;15.70;99.90;;;;;;4973998;28;20170;-91
2021/07/10 05:23:20;;;;;;;3.00;1.55;;;15.70;99.90;;;;;;4968394;28;20041;-90
2021/07/10 05:25:46;;;;;;;2.42;1.90;;;15.70;99.90;;;;;;4954317;29;20406;-90
2021/07/10 05:28:12;;;;;;;2.90;2.25;;;15.70;99.90;;;;;;4954699;29;20367;-91
2021/07/10 05:30:38;;;;;;;2.65;1.73;;;15.70;99.90;;;;;;4968650;28;20034;-91
2021/07/10 05:33:04;;;;;;;4.68;2.10;;;15.70;99.90;;;;;;4968773;28;20170;-91
2021/07/10 05:35:30;;;;;;;2.30;2.10;;;15.70;99.90;;;;;;4953054;29;20110;-91
2021/07/10 05:37:56;;;;;;;2.58;2.30;;;15.80;99.90;;;;;;4953267;28;20167;-91
2021/07/10 05:40:22;;;;;;;10.90;2.15;;;15.80;99.90;;;;;;4953749;28;20039;-91
2021/07/10 05:42:48;;;;;;;1.95;1.80;;;15.90;99.90;;;;;;4969593;28;20061;-91
2021/07/10 05:45:16;;;;;;;3.45;1.80;;;15.90;99.90;;;;;;4988040;28;20115;-91
2021/07/10 05:47:42;;;;;;;6.90;1.80;;;15.90;99.90;;;;;;4972637;28;20117;-91
2021/07/10 05:50:09;;;;;;;2.05;1.85;;;15.90;99.90;;;;;;4972931;28;20106;-91
2021/07/10 05:52:35;;;;;;;2.75;1.73;;;15.90;99.90;;;;;;4972199;28;20038;-91
2021/07/10 05:55:03;;;;;;;3.20;2.40;;;15.80;99.90;;;;;;4991026;28;20489;-90
2021/07/10 05:57:29;;;;;;;4.68;2.30;;;15.90;99.90;;;;;;4996989;28;20034;-91
2021/07/10 05:59:55;;;;;;;2.80;2.20;;;15.80;99.90;;;;;;4996568;28;20547;-91
2021/07/10 06:02:21;;;;;;;2.95;2.65;;;15.90;99.90;;;;;;4994740;28;20034;-91
2021/07/10 06:04:46;;;;;;;2.72;2.33;;;16.00;99.90;;;;;;4995402;28;20030;-91
2021/07/10 06:07:12;;;;;;;3.95;2.45;;;16.00;99.90;;;;;;4995461;28;20046;-91
2021/07/10 06:09:39;;;;;;;2.97;2.20;;;15.90;99.90;;;;;;5001102;28;20022;-90
2021/07/10 06:12:05;;;;;;;2.72;1.80;;;16.00;99.90;;;;;;4994428;28;20527;-91
2021/07/10 06:14:33;;;;;;;2.58;1.83;;;16.20;99.90;;;;;;4993986;28;20037;-90
2021/07/10 06:16:59;;;;;;;4.63;1.70;;;16.30;99.90;;;;;;4994280;28;20451;-91
2021/07/10 06:19:25;;;;;;;2.15;1.70;;;16.40;99.90;;;;;;4994550;28;20023;-91
2021/07/10 06:21:51;;;;;;;3.20;1.80;;;16.60;99.90;;;;;;4994603;28;20413;-90
2021/07/10 06:24:17;;;;;;;3.13;1.90;;;16.80;99.90;;;;;;4980071;28;20401;-91
2021/07/10 06:26:43;;;;;;;2.30;1.77;;;16.80;99.90;;;;;;4956930;28;20038;-91
2021/07/10 06:29:09;;;;;;;1.75;1.55;;;16.80;99.90;;;;;;4955315;28;20034;-91
2021/07/10 06:31:35;;;;;;;2.35;1.83;;;16.70;99.90;;;;;;4955660;28;20038;-91
2021/07/10 06:34:01;;;;;;;5.40;1.98;;;16.70;99.90;;;;;;4956308;28;20429;-91
2021/07/10 06:36:27;;;;;;;1.92;1.70;;;16.70;99.90;;;;;;4968554;28;20031;-91
2021/07/10 06:38:53;;;;;;;2.20;1.80;;;16.70;99.90;;;;;;4991756;28;20023;-91
2021/07/10 06:41:20;;;;;;;3.92;1.95;;;16.80;99.90;;;;;;4976944;28;20110;-91
2021/07/10 06:43:45;;;;;;;2.35;1.85;;;16.90;99.90;;;;;;4990459;28;20037;-90
2021/07/10 06:46:11;;;;;;;3.53;1.70;;;17.00;99.90;;;;;;5019413;28;20042;-91
2021/07/10 06:48:37;;;;;;;3.88;1.92;;;17.00;99.90;;;;;;4995694;28;20029;-91
2021/07/10 06:51:03;;;;;;;1.63;1.52;;;17.10;99.90;;;;;;4978502;28;20124;-91
2021/07/10 06:53:29;;;;;;;4.07;1.70;;;17.40;99.90;;;;;;5015864;28;20403;-90
2021/07/10 06:55:55;;;;;;;3.17;1.67;;;17.50;99.90;;;;;;5028553;28;20074;-90
2021/07/10 06:58:21;;;;;;;2.88;1.70;;;17.40;99.90;;;;;;5033990;28;20117;-90
2021/07/10 07:00:47;;;;;;;3.42;1.70;;;17.30;99.90;;;;;;5035613;28;20107;-90
2021/07/10 07:03:13;;;;;;;1.92;1.27;;;17.10;99.90;;;;;;5015553;28;20026;-90
2021/07/10 07:05:39;;;;;;;2.15;1.55;;;17.00;99.90;;;;;;5029917;28;20481;-90
2021/07/10 07:08:05;;;;;;;1.60;1.50;;;16.90;99.90;;;;;;5029080;28;20030;-91
2021/07/10 07:10:31;;;;;;;2.22;1.58;;;16.80;99.90;;;;;;5029081;28;20053;-91
2021/07/10 07:12:57;;;;;;;3.08;1.88;;;16.70;99.90;;;;;;5029933;28;20026;-91
2021/07/10 07:15:23;;;;;;;2.10;1.90;;;16.60;99.90;;;;;;5029708;28;20029;-91
2021/07/10 07:17:49;;;;;;;3.10;1.95;;;16.60;99.90;;;;;;5013815;28;20495;-91
2021/07/10 07:20:16;;;;;;;4.65;2.33;;;16.60;99.90;;;;;;5030611;28;20030;-91
2021/07/10 07:22:44;;;;;;;2.10;1.90;;;16.60;99.90;;;;;;5029573;28;20119;-91
2021/07/10 07:25:12;;;;;;;6.43;2.47;;;16.70;99.90;;;;;;4993784;28;20061;-90
2021/07/10 07:27:38;;;;;;;2.08;1.77;;;16.60;99.90;;;;;;4978035;28;20038;-91
2021/07/10 07:30:06;;;;;;;3.28;2.03;;;16.60;99.90;;;;;;4977398;28;20031;-91
2021/07/10 07:32:33;;;;;;;2.10;1.90;;;16.50;99.90;;;;;;4977476;28;20026;-90
2021/07/10 07:34:59;;;;;;;2.75;2.28;;;16.60;99.90;;;;;;4976983;28;20546;-91
2021/07/10 07:37:24;;;;;;;2.45;1.90;;;16.70;99.90;;;;;;4992538;28;20057;-91
2021/07/10 07:39:50;;;;;;;2.15;1.95;;;16.80;99.90;;;;;;4993533;28;20069;-91
2021/07/10 07:42:18;;;;;;;2.22;1.83;;;16.80;99.90;;;;;;4992977;28;20050;-90
2021/07/10 07:44:44;;;;;;;3.97;1.70;;;16.80;99.90;;;;;;5029749;28;20032;-91
2021/07/10 07:47:11;;;;;;;2.33;2.08;;;16.80;99.90;;;;;;5009813;28;20042;-91
2021/07/10 07:49:38;;;;;;;2.15;1.92;;;16.90;99.90;;;;;;5009453;28;20108;-90
2021/07/10 07:52:05;;;;;;;2.80;1.90;;;17.10;99.90;;;;;;4994075;28;20105;-90
2021/07/10 07:54:33;;;;;;;2.35;1.83;;;17.10;99.90;;;;;;4988930;28;20057;-90
2021/07/10 07:57:00;;;;;;;2.00;1.90;;;17.20;99.90;;;;;;5013678;28;20041;-91
2021/07/10 07:59:25;;;;;;;2.10;1.90;;;17.30;99.90;;;;;;4995897;28;20049;-90
2021/07/10 08:01:51;;;;;;;2.53;1.80;;;17.40;99.90;;;;;;5028314;28;20069;-91
2021/07/10 08:04:17;;;;;;;5.93;2.25;;;17.50;99.90;;;;;;5029083;28;20030;-90
2021/07/10 08:06:43;;;;;;;2.38;1.92;;;17.50;99.90;;;;;;5032033;28;20084;-91
2021/07/10 08:09:08;;;;;;;4.53;2.17;;;17.50;99.90;;;;;;5046323;28;20041;-91
2021/07/10 08:11:34;;;;;;;2.78;2.20;;;17.60;99.90;;;;;;5020528;28;20062;-91
2021/07/10 08:14:01;;;;;;;4.93;2.25;;;17.60;99.90;;;;;;4996993;28;20037;-90
2021/07/10 08:16:26;;;;;;;2.10;1.60;;;17.70;99.90;;;;;;5028431;28;20049;-91
2021/07/10 08:18:54;;;;;;;1.98;1.77;;;17.70;99.90;;;;;;5028401;28;20025;-90
2021/07/10 08:21:20;;;;;;;2.05;1.90;;;17.80;99.90;;;;;;5027795;28;20037;-91
2021/07/10 08:23:46;;;;;;;2.75;2.03;;;17.90;99.90;;;;;;5022925;28;20069;-90
2021/07/10 08:26:13;;;;;;;2.58;1.60;;;18.00;99.90;;;;;;4974528;28;20099;-91
2021/07/10 08:28:39;;;;;;;2.10;1.90;;;18.00;99.90;;;;;;4976567;28;20061;-91
2021/07/10 08:31:05;;;;;;;1.88;1.77;;;18.00;99.90;;;;;;4992926;28;20482;-91
2021/07/10 08:33:32;;;;;;;5.93;1.85;;;18.00;99.90;;;;;;4976237;28;20037;-91
2021/07/10 08:35:58;;;;;;;5.20;2.17;;;17.90;99.90;;;;;;4975520;28;20041;-90
2021/07/10 08:38:24;;;;;;;2.63;2.13;;;18.10;99.90;;;;;;4976337;28;20034;-90
2021/07/10 08:40:54;;;;;;;2.70;1.80;;;18.30;99.90;;;;;;4976464;28;20153;-91
2021/07/10 08:43:21;;;;;;;6.20;2.33;;;18.60;99.90;;;;;;5001476;28;20074;-91
2021/07/10 08:45:50;;;;;;;2.17;1.70;;;18.80;99.90;;;;;;5020294;28;20469;-89
2021/07/10 08:48:16;;;;;;;3.05;2.10;;;18.80;99.90;;;;;;5005320;28;20054;-90
2021/07/10 08:50:43;;;;;;;3.22;1.40;;;19.10;99.90;;;;;;4975132;28;20057;-90
2021/07/10 08:53:09;;;;;;;2.50;1.25;;;20.00;99.90;;;;;;4974847;28;20034;-91
2021/07/10 08:55:36;;;;;;;2.33;1.00;;;19.90;99.90;;;;;;4976354;28;20493;-90
2021/07/10 08:58:04;;;;;;;1.30;1.10;;;19.50;99.90;;;;;;4993030;28;20034;-91
2021/07/10 09:00:43;;;;;;;1.42;0.80;;;20.00;99.90;;;;;;4975688;28;20528;-91
2021/07/10 09:03:09;;;;;;;1.20;1.10;;;20.60;99.90;;;;;;4975612;28;20388;-91
2021/07/10 09:05:36;;;;;;;0.98;0.80;;;21.00;99.90;;;;;;4975999;28;20524;-92
2021/07/10 09:08:27;;;;;;;1.92;0.85;;;20.60;99.90;;;;;;4995267;28;20030;-92
2021/07/10 09:10:57;;;;;;;1.95;1.10;;;21.20;99.90;;;;;;4995424;28;20500;-93
2021/07/10 09:13:40;;;;;;;1.70;1.05;;;21.40;99.90;;;;;;5011661;28;20044;-92
2021/07/10 09:16:14;;;;;;;1.58;0.90;;;21.90;99.90;;;;;;5027790;28;20076;-92
2021/07/10 09:18:50;;;;;;;1.42;1.33;;;21.90;99.90;;;;;;4994702;28;20488;-91
2021/07/10 09:21:36;;;;;;;1.73;1.20;;;22.40;99.90;;;;;;5010487;28;20026;-91
2021/07/10 09:24:05;;;;;;;1.15;1.15;;;23.10;99.30;;;;;;5003511;28;20061;-92
2021/07/10 09:26:31;;;;;;;0.93;0.90;;;23.90;97.80;;;;;;4991782;28;20501;-91
2021/07/10 09:29:08;;;;;;;1.85;0.98;;;23.50;98.00;;;;;;5010547;28;20098;-92
2021/07/10 09:31:40;;;;;;;1.00;0.88;;;22.10;99.90;;;;;;4993101;28;20022;-90
2021/07/10 09:34:10;;;;;;;1.10;1.00;;;21.60;99.90;;;;;;5007763;28;20057;-90
2021/07/10 09:36:47;;;;;;;1.15;1.02;;;20.80;99.90;;;;;;4975507;28;20026;-91
2021/07/10 09:39:15;;;;;;;2.05;1.10;;;20.30;99.90;;;;;;4991338;28;20104;-91
2021/07/10 09:41:41;;;;;;;1.20;0.95;;;20.10;99.90;;;;;;4991575;28;20093;-92
2021/07/10 09:44:13;;;;;;;2.78;0.90;;;19.80;99.90;;;;;;4990143;28;20077;-92
2021/07/10 09:46:39;;;;;;;1.55;1.05;;;19.70;99.90;;;;;;5012784;28;20080;-91
2021/07/10 09:49:22;;;;;;;1.25;0.90;;;19.60;99.90;;;;;;4991860;28;20026;-92
2021/07/10 09:51:55;;;;;;;;;;;19.40;99.90;;;;;;5008854;28;20026;-91
2021/07/10 09:54:31;;;;;;;1.77;1.10;;;19.30;99.90;;;;;;5006125;28;19957;-91
2021/07/10 09:57:07;;;;;;;1.30;1.20;;;19.30;99.90;;;;;;5027234;28;20034;-90
2021/07/10 09:59:40;;;;;;;4.30;1.52;;;19.20;99.90;;;;;;5010819;28;20022;-90
2021/07/10 10:02:10;;;;;;;;;;;19.20;99.90;;;;;;5012472;28;20065;-89
2021/07/10 10:04:36;;;;;;;2.00;1.50;;;19.20;99.90;;;;;;5027347;28;19909;-91
2021/07/10 10:07:19;;;;;;;1.92;1.50;;;19.40;99.90;;;;;;5027308;28;20042;-91
2021/07/10 10:09:56;;;;;;;2.70;2.10;;;19.70;99.90;;;;;;5026288;28;20034;-91
2021/07/10 10:12:24;;;;;;;3.83;2.20;;;20.10;99.90;;;;;;5027033;28;20149;-92
2021/07/10 10:14:53;;;;;;;2.95;2.22;;;20.80;99.90;;;;;;5027235;28;20042;-92
2021/07/10 10:17:21;;;;;;;2.90;2.22;;;20.70;99.90;;;;;;5026406;28;20054;-90
2021/07/10 10:19:47;;;;;;;5.22;2.65;;;20.30;99.90;;;;;;4994582;28;20033;-91
2021/07/10 10:22:15;;;;;;;5.68;2.50;;;20.30;99.90;;;;;;5027329;28;20026;-92
2021/07/10 10:24:45;;;;;;;3.63;2.88;;;20.30;99.90;;;;;;4974346;28;20022;-91
2021/07/10 10:27:11;;;;;;;7.45;2.65;;;20.50;99.90;;;;;;4973500;28;20058;-91
2021/07/10 10:29:37;;;;;;;2.85;2.65;;;21.00;99.90;;;;;;4975318;28;20034;-91
2021/07/10 10:32:06;;;;;;;5.30;3.03;;;21.00;99.90;;;;;;4974805;28;20026;-91
2021/07/10 10:34:33;;;;;;;5.90;2.90;;;21.10;99.90;;;;;;4975222;28;20068;-92
2021/07/10 10:37:02;;;;;;;6.10;3.03;;;20.80;99.90;;;;;;4974707;28;20027;-91
2021/07/10 10:39:36;;;;;;;8.02;2.92;;;20.40;99.90;;;;;;4975183;28;20474;-90
2021/07/10 10:42:07;;;;;;;4.32;2.83;;;20.30;99.90;;;;;;4972767;28;20062;-92
2021/07/10 10:44:42;;;;;;;4.13;3.00;;;20.10;99.90;;;;;;5011853;28;20041;-91
2021/07/10 10:47:12;;;;;;;4.80;3.08;;;20.30;99.90;;;;;;4975764;28;20493;-93
2021/07/10 10:49:53;;;;;;;4.35;2.70;;;20.20;99.90;;;;;;4975495;28;20397;-92
2021/07/10 10:52:25;;;;;;;4.07;2.67;;;20.30;99.90;;;;;;4991217;28;20089;-91
2021/07/10 10:55:03;;;;;;;3.38;2.45;;;20.70;99.90;;;;;;5006334;28;20026;-91
2021/07/10 10:57:51;;;;;;;4.80;2.60;;;20.40;99.90;;;;;;5030379;28;20459;-91
2021/07/10 11:00:28;;;;;;;5.20;3.03;;;20.20;99.90;;;;;;5030242;28;20032;-92
2021/07/10 11:03:02;;;;;;;5.30;2.90;;;20.10;99.90;;;;;;5034048;28;20030;-91
2021/07/10 11:05:31;;;;;;;4.45;2.80;;;20.10;99.90;;;;;;5023407;28;20033;-91
2021/07/10 11:08:19;;;;;;;3.92;2.75;;;20.30;99.90;;;;;;5016550;28;20030;-92
2021/07/10 11:11:08;;;;;;;5.85;3.10;;;20.30;99.90;;;;;;5013251;28;20050;-91
2021/07/10 11:13:46;;;;;;;4.57;3.00;;;20.40;99.90;;;;;;4990476;28;20037;-92
2021/07/10 11:16:16;;;;;;;7.43;3.22;;;20.40;99.90;;;;;;5029431;28;20022;-92
2021/07/10 11:18:51;;;;;;;3.28;2.97;;;20.70;99.90;;;;;;5030513;28;20408;-91
2021/07/10 11:21:35;;;;;;;5.53;2.88;;;20.90;99.90;;;;;;5013672;28;20117;-91
2021/07/10 11:24:16;;;;;;;4.43;3.00;;;20.80;99.90;;;;;;4984113;28;20033;-92
2021/07/10 11:27:07;;;;;;;4.72;2.72;;;21.00;99.90;;;;;;4973348;28;20034;-91
2021/07/10 11:29:41;;;;;;;3.67;2.63;;;21.20;99.90;;;;;;4969177;28;20034;-92
2021/07/10 11:32:16;;;;;;;3.45;2.83;;;21.60;99.90;;;;;;4973764;28;20042;-92
2021/07/10 11:34:44;;;;;;;3.53;2.75;;;21.30;99.90;;;;;;4973737;28;20034;-92
2021/07/10 11:37:17;;;;;;;4.78;2.65;;;21.20;99.90;;;;;;4992392;28;20477;-91
2021/07/10 11:39:43;;;;;;;;;;;21.20;99.90;;;;;;4978159;28;20026;-91
2021/07/10 11:42:20;;;;;;;4.07;2.70;;;21.50;99.90;;;;;;4977309;28;19921;-94
2021/07/10 11:44:54;;;;;;;5.38;2.83;;;21.30;99.90;;;;;;4974554;28;20031;-91
2021/07/10 11:47:47;;;;;;;3.38;2.63;;;21.00;99.90;;;;;;4976700;28;20030;-91
2021/07/10 11:50:28;;;;;;;5.10;3.08;;;20.80;99.90;;;;;;4977538;28;20054;-91
2021/07/10 11:52:59;;;;;;;4.43;2.80;;;20.80;99.90;;;;;;4976542;28;20030;-91
2021/07/10 11:55:27;;;;;;;4.85;2.90;;;21.30;99.90;;;;;;4973680;28;20031;-91
2021/07/10 11:57:53;;;;;;;4.40;2.85;;;21.00;99.90;;;;;;4974834;28;20051;-93
2021/07/10 12:00:24;;;;;;;4.35;2.90;;;20.90;99.90;;;;;;4973738;28;20027;-92
2021/07/10 12:02:50;;;;;;;6.75;3.05;;;20.90;99.90;;;;;;4974077;28;20057;-92
2021/07/10 12:05:20;;;;;;;5.95;2.85;;;20.90;99.90;;;;;;4972882;28;20493;-91
2021/07/10 12:07:49;;;;;;;3.58;2.70;;;20.50;99.90;;;;;;4973910;28;20034;-92
2021/07/10 12:10:15;;;;;;;5.05;3.10;;;20.60;99.90;;;;;;4974131;28;20105;-92
2021/07/10 12:12:47;;;;;;;4.40;3.10;;;20.80;99.90;;;;;;4973163;28;20617;-91
2021/07/10 12:15:28;;;;;;;4.93;2.78;;;21.10;99.90;;;;;;4972785;28;20417;-92
2021/07/10 12:17:57;;;;;;;3.15;2.83;;;21.40;99.90;;;;;;4973457;28;20027;-92
2021/07/10 12:20:27;;;;;;;4.88;3.25;;;21.20;99.90;;;;;;4974133;28;20034;-93
2021/07/10 12:22:57;;;;;;;3.55;2.78;;;21.30;99.90;;;;;;4979562;28;20026;-91
2021/07/10 12:25:29;;;;;;;7.05;3.42;;;20.90;99.90;;;;;;4976780;28;20038;-92
2021/07/10 12:28:04;;;;;;;4.32;3.00;;;21.00;99.90;;;;;;4976098;28;20133;-94
2021/07/10 12:30:51;;;;;;;6.13;3.00;;;21.10;99.90;;;;;;4976526;28;20499;-91
2021/07/10 12:33:27;;;;;;;4.78;3.35;;;20.80;99.90;;;;;;4976895;28;20030;-92
2021/07/10 12:36:07;;;;;;;6.28;3.00;;;20.70;99.90;;;;;;4993871;28;20045;-92
2021/07/10 12:38:36;;;;;;;9.65;3.88;;;20.60;99.90;;;;;;4976460;28;20023;-92
2021/07/10 12:41:21;;;;;;;4.93;3.35;;;20.30;99.90;;;;;;4992859;28;20026;-95
2021/07/10 12:43:46;;;;;;;5.53;3.33;;;20.10;99.90;;;;;;4980991;28;20073;-92
2021/07/10 12:46:14;;;;;;;11.10;3.72;;;19.90;99.90;;;;;;5028241;28;20531;-91
2021/07/10 12:48:39;;;;;;;7.55;3.40;;;19.60;99.90;;;;;;5012002;28;20030;-92
2021/07/10 12:51:05;;;;;;;6.55;3.40;;;19.70;99.90;;;;;;4995981;28;20479;-90
2021/07/10 12:53:33;;;;;;;6.55;3.00;;;19.90;99.90;;;;;;5028401;28;20033;-92